sensor_id;sensor_type;location;lat;lon;timestamp;P1;durP1;ratioP1;P2;durP2;ratioP2
31112;SDS011;17763;48.730;9.136;2022-10-31T00:00:43;5.97;;;3.90;;
31112;SDS011;17763;48.730;9.136;2022-10-31T00:03:09;7.68;;;4.93;;
31112;SDS011;17763;48.730;9.136;2022-10-31T00:05:40;7.50;;;4.35;;
31112;SDS011;17763;48.730;9.136;2022-10-31T00:08:07;9.02;;;5.13;;
31112;SDS011;17763;48.730;9.136;2022-10-31T00:10:33;8.32;;;5.15;;
31112;SDS011;17763;48.730;9.136;2022-10-31T00:13:01;9.70;;;5.10;;
31112;SDS011;17763;48.730;9.136;2022-10-31T00:15:26;8.35;;;5.55;;
31112;SDS011;17763;48.730;9.136;2022-10-31T00:17:52;7.68;;;4.75;;
31112;SDS011;17763;48.730;9.136;2022-10-31T00:20:17;7.30;;;4.88;;
31112;SDS011;17763;48.730;9.136;2022-10-31T00:22:45;7.38;;;4.60;;
31112;SDS011;17763;48.730;9.136;2022-10-31T00:25:13;7.68;;;4.07;;
31112;SDS011;17763;48.730;9.136;2022-10-31T00:27:39;8.73;;;4.63;;
31112;SDS011;17763;48.730;9.136;2022-10-31T00:30:07;7.72;;;3.88;;
31112;SDS011;17763;48.730;9.136;2022-10-31T00:32:33;10.20;;;4.38;;
31112;SDS011;17763;48.730;9.136;2022-10-31T00:34:59;9.10;;;4.65;;
31112;SDS011;17763;48.730;9.136;2022-10-31T00:37:24;6.50;;;4.13;;
31112;SDS011;17763;48.730;9.136;2022-10-31T00:39:50;8.25;;;3.90;;
31112;SDS011;17763;48.730;9.136;2022-10-31T00:42:16;7.93;;;4.32;;
31112;SDS011;17763;48.730;9.136;2022-10-31T00:44:44;5.68;;;3.53;;
31112;SDS011;17763;48.730;9.136;2022-10-31T00:47:09;5.32;;;4.35;;
31112;SDS011;17763;48.730;9.136;2022-10-31T00:49:35;7.50;;;3.80;;
31112;SDS011;17763;48.730;9.136;2022-10-31T00:52:00;6.82;;;3.80;;
31112;SDS011;17763;48.730;9.136;2022-10-31T00:54:26;9.98;;;3.60;;
31112;SDS011;17763;48.730;9.136;2022-10-31T00:56:52;6.78;;;3.90;;
31112;SDS011;17763;48.730;9.136;2022-10-31T00:59:17;7.03;;;3.95;;
31112;SDS011;17763;48.730;9.136;2022-10-31T01:01:43;4.68;;;3.50;;
31112;SDS011;17763;48.730;9.136;2022-10-31T01:04:11;5.18;;;3.40;;
31112;SDS011;17763;48.730;9.136;2022-10-31T01:06:37;10.10;;;4.10;;
31112;SDS011;17763;48.730;9.136;2022-10-31T01:09:05;7.28;;;4.05;;
31112;SDS011;17763;48.730;9.136;2022-10-31T01:11:30;8.32;;;5.47;;
31112;SDS011;17763;48.730;9.136;2022-10-31T01:13:56;10.52;;;5.68;;
31112;SDS011;17763;48.730;9.136;2022-10-31T01:16:23;6.93;;;4.75;;
31112;SDS011;17763;48.730;9.136;2022-10-31T01:18:50;5.65;;;4.60;;
31112;SDS011;17763;48.730;9.136;2022-10-31T01:21:18;6.80;;;4.50;;
31112;SDS011;17763;48.730;9.136;2022-10-31T01:23:47;8.80;;;4.57;;
31112;SDS011;17763;48.730;9.136;2022-10-31T01:26:20;5.65;;;3.60;;
31112;SDS011;17763;48.730;9.136;2022-10-31T01:28:51;7.57;;;4.13;;
31112;SDS011;17763;48.730;9.136;2022-10-31T01:31:26;6.20;;;4.07;;
31112;SDS011;17763;48.730;9.136;2022-10-31T01:33:54;7.25;;;3.47;;
31112;SDS011;17763;48.730;9.136;2022-10-31T01:36:27;6.35;;;3.55;;
31112;SDS011;17763;48.730;9.136;2022-10-31T01:38:56;5.53;;;3.28;;
31112;SDS011;17763;48.730;9.136;2022-10-31T01:41:28;6.00;;;3.53;;
31112;SDS011;17763;48.730;9.136;2022-10-31T01:44:00;5.32;;;3.88;;
31112;SDS011;17763;48.730;9.136;2022-10-31T01:49:21;6.13;;;3.55;;
31112;SDS011;17763;48.730;9.136;2022-10-31T01:51:56;7.63;;;4.38;;
31112;SDS011;17763;48.730;9.136;2022-10-31T01:54:26;6.90;;;4.13;;
31112;SDS011;17763;48.730;9.136;2022-10-31T01:57:03;7.07;;;3.80;;
31112;SDS011;17763;48.730;9.136;2022-10-31T01:59:34;7.10;;;4.53;;
31112;SDS011;17763;48.730;9.136;2022-10-31T02:04:31;7.10;;;4.28;;
31112;SDS011;17763;48.730;9.136;2022-10-31T02:07:05;8.60;;;3.80;;
31112;SDS011;17763;48.730;9.136;2022-10-31T02:09:38;8.60;;;3.85;;
31112;SDS011;17763;48.730;9.136;2022-10-31T02:12:05;8.18;;;4.55;;
31112;SDS011;17763;48.730;9.136;2022-10-31T02:14:34;10.70;;;5.57;;
31112;SDS011;17763;48.730;9.136;2022-10-31T02:17:01;8.88;;;4.93;;
31112;SDS011;17763;48.730;9.136;2022-10-31T02:19:39;8.05;;;4.20;;
31112;SDS011;17763;48.730;9.136;2022-10-31T02:22:30;8.60;;;5.05;;
31112;SDS011;17763;48.730;9.136;2022-10-31T02:30:22;7.15;;;4.28;;
31112;SDS011;17763;48.730;9.136;2022-10-31T02:33:05;6.35;;;4.63;;
31112;SDS011;17763;48.730;9.136;2022-10-31T02:38:27;8.20;;;4.72;;
31112;SDS011;17763;48.730;9.136;2022-10-31T02:41:18;8.30;;;4.53;;
31112;SDS011;17763;48.730;9.136;2022-10-31T02:44:05;6.85;;;4.63;;
31112;SDS011;17763;48.730;9.136;2022-10-31T02:46:49;7.28;;;5.22;;
31112;SDS011;17763;48.730;9.136;2022-10-31T02:49:24;8.30;;;4.15;;
31112;SDS011;17763;48.730;9.136;2022-10-31T02:51:54;8.95;;;3.95;;
31112;SDS011;17763;48.730;9.136;2022-10-31T02:54:24;7.68;;;3.78;;
31112;SDS011;17763;48.730;9.136;2022-10-31T02:56:52;7.53;;;3.67;;
31112;SDS011;17763;48.730;9.136;2022-10-31T02:59:25;9.07;;;4.10;;
31112;SDS011;17763;48.730;9.136;2022-10-31T03:10:05;5.38;;;3.80;;
31112;SDS011;17763;48.730;9.136;2022-10-31T03:12:51;4.32;;;3.33;;
31112;SDS011;17763;48.730;9.136;2022-10-31T03:15:36;6.72;;;3.97;;
31112;SDS011;17763;48.730;9.136;2022-10-31T03:18:09;9.38;;;4.55;;
31112;SDS011;17763;48.730;9.136;2022-10-31T03:20:47;6.07;;;3.67;;
31112;SDS011;17763;48.730;9.136;2022-10-31T03:23:17;6.78;;;3.70;;
31112;SDS011;17763;48.730;9.136;2022-10-31T03:25:44;6.57;;;3.88;;
31112;SDS011;17763;48.730;9.136;2022-10-31T03:28:13;5.35;;;3.65;;
31112;SDS011;17763;48.730;9.136;2022-10-31T03:30:43;4.65;;;3.92;;
31112;SDS011;17763;48.730;9.136;2022-10-31T03:33:13;6.97;;;4.43;;
31112;SDS011;17763;48.730;9.136;2022-10-31T03:35:44;6.22;;;3.55;;
31112;SDS011;17763;48.730;9.136;2022-10-31T03:38:11;14.32;;;4.05;;
31112;SDS011;17763;48.730;9.136;2022-10-31T03:40:40;6.63;;;3.47;;
31112;SDS011;17763;48.730;9.136;2022-10-31T03:43:12;5.80;;;3.80;;
31112;SDS011;17763;48.730;9.136;2022-10-31T03:45:43;7.00;;;3.90;;
31112;SDS011;17763;48.730;9.136;2022-10-31T03:48:12;7.30;;;3.75;;
31112;SDS011;17763;48.730;9.136;2022-10-31T03:56:23;7.00;;;3.63;;
31112;SDS011;17763;48.730;9.136;2022-10-31T03:59:01;6.45;;;4.05;;
31112;SDS011;17763;48.730;9.136;2022-10-31T04:01:36;16.40;;;4.68;;
31112;SDS011;17763;48.730;9.136;2022-10-31T04:04:12;5.72;;;3.67;;
31112;SDS011;17763;48.730;9.136;2022-10-31T04:06:41;7.25;;;4.05;;
31112;SDS011;17763;48.730;9.136;2022-10-31T04:09:11;7.18;;;3.72;;
31112;SDS011;17763;48.730;9.136;2022-10-31T04:11:40;5.82;;;3.40;;
31112;SDS011;17763;48.730;9.136;2022-10-31T04:14:11;8.15;;;4.25;;
31112;SDS011;17763;48.730;9.136;2022-10-31T04:16:38;7.05;;;4.22;;
31112;SDS011;17763;48.730;9.136;2022-10-31T04:19:07;5.07;;;4.07;;
31112;SDS011;17763;48.730;9.136;2022-10-31T04:21:32;6.72;;;3.55;;
31112;SDS011;17763;48.730;9.136;2022-10-31T04:23:58;6.78;;;4.18;;
31112;SDS011;17763;48.730;9.136;2022-10-31T04:26:24;8.05;;;3.97;;
31112;SDS011;17763;48.730;9.136;2022-10-31T04:28:50;7.47;;;3.50;;
31112;SDS011;17763;48.730;9.136;2022-10-31T04:31:15;5.78;;;4.40;;
31112;SDS011;17763;48.730;9.136;2022-10-31T04:33:41;7.53;;;4.47;;
31112;SDS011;17763;48.730;9.136;2022-10-31T04:36:07;9.20;;;3.83;;
31112;SDS011;17763;48.730;9.136;2022-10-31T04:38:35;5.63;;;4.20;;
31112;SDS011;17763;48.730;9.136;2022-10-31T04:41:01;7.63;;;4.22;;
31112;SDS011;17763;48.730;9.136;2022-10-31T04:43:26;5.70;;;3.63;;
31112;SDS011;17763;48.730;9.136;2022-10-31T04:45:52;5.65;;;3.95;;
31112;SDS011;17763;48.730;9.136;2022-10-31T04:48:17;7.63;;;4.25;;
31112;SDS011;17763;48.730;9.136;2022-10-31T04:50:43;6.50;;;4.28;;
31112;SDS011;17763;48.730;9.136;2022-10-31T04:53:09;5.00;;;3.63;;
31112;SDS011;17763;48.730;9.136;2022-10-31T04:55:35;9.25;;;4.07;;
31112;SDS011;17763;48.730;9.136;2022-10-31T04:58:01;6.30;;;4.07;;
31112;SDS011;17763;48.730;9.136;2022-10-31T05:00:27;5.40;;;3.70;;
31112;SDS011;17763;48.730;9.136;2022-10-31T05:02:56;6.93;;;3.63;;
31112;SDS011;17763;48.730;9.136;2022-10-31T05:05:24;4.75;;;3.78;;
31112;SDS011;17763;48.730;9.136;2022-10-31T05:07:52;5.22;;;3.78;;
31112;SDS011;17763;48.730;9.136;2022-10-31T05:10:20;7.28;;;3.70;;
31112;SDS011;17763;48.730;9.136;2022-10-31T05:12:48;5.55;;;4.50;;
31112;SDS011;17763;48.730;9.136;2022-10-31T05:15:19;5.70;;;3.50;;
31112;SDS011;17763;48.730;9.136;2022-10-31T05:17:46;6.53;;;4.60;;
31112;SDS011;17763;48.730;9.136;2022-10-31T05:20:12;4.72;;;4.13;;
31112;SDS011;17763;48.730;9.136;2022-10-31T05:22:42;5.15;;;3.70;;
31112;SDS011;17763;48.730;9.136;2022-10-31T05:25:13;6.90;;;4.05;;
31112;SDS011;17763;48.730;9.136;2022-10-31T05:27:43;5.97;;;3.97;;
31112;SDS011;17763;48.730;9.136;2022-10-31T05:30:15;6.85;;;4.07;;
31112;SDS011;17763;48.730;9.136;2022-10-31T05:32:47;11.05;;;4.70;;
31112;SDS011;17763;48.730;9.136;2022-10-31T05:35:18;6.63;;;3.78;;
31112;SDS011;17763;48.730;9.136;2022-10-31T05:37:45;5.82;;;3.88;;
31112;SDS011;17763;48.730;9.136;2022-10-31T05:40:12;7.05;;;4.30;;
31112;SDS011;17763;48.730;9.136;2022-10-31T05:42:39;6.85;;;3.50;;
31112;SDS011;17763;48.730;9.136;2022-10-31T05:45:05;5.00;;;3.88;;
31112;SDS011;17763;48.730;9.136;2022-10-31T05:47:32;4.53;;;3.42;;
31112;SDS011;17763;48.730;9.136;2022-10-31T05:49:58;10.43;;;5.28;;
31112;SDS011;17763;48.730;9.136;2022-10-31T05:52:23;7.22;;;4.50;;
31112;SDS011;17763;48.730;9.136;2022-10-31T05:54:49;7.93;;;4.57;;
31112;SDS011;17763;48.730;9.136;2022-10-31T05:57:15;6.55;;;4.10;;
31112;SDS011;17763;48.730;9.136;2022-10-31T05:59:40;9.05;;;4.93;;
31112;SDS011;17763;48.730;9.136;2022-10-31T06:02:06;7.93;;;4.47;;
31112;SDS011;17763;48.730;9.136;2022-10-31T06:04:32;10.18;;;5.10;;
31112;SDS011;17763;48.730;9.136;2022-10-31T06:06:57;7.00;;;4.57;;
31112;SDS011;17763;48.730;9.136;2022-10-31T06:09:23;7.28;;;4.55;;
31112;SDS011;17763;48.730;9.136;2022-10-31T06:11:49;9.30;;;5.95;;
31112;SDS011;17763;48.730;9.136;2022-10-31T06:14:17;9.05;;;4.03;;
31112;SDS011;17763;48.730;9.136;2022-10-31T06:16:42;6.57;;;4.80;;
31112;SDS011;17763;48.730;9.136;2022-10-31T06:19:10;5.03;;;3.83;;
31112;SDS011;17763;48.730;9.136;2022-10-31T06:21:36;9.27;;;4.30;;
31112;SDS011;17763;48.730;9.136;2022-10-31T06:24:04;9.73;;;4.78;;
31112;SDS011;17763;48.730;9.136;2022-10-31T06:26:32;6.78;;;3.90;;
31112;SDS011;17763;48.730;9.136;2022-10-31T06:28:58;5.47;;;4.43;;
31112;SDS011;17763;48.730;9.136;2022-10-31T06:31:23;6.00;;;4.50;;
31112;SDS011;17763;48.730;9.136;2022-10-31T06:33:49;7.75;;;4.90;;
31112;SDS011;17763;48.730;9.136;2022-10-31T06:36:14;5.85;;;4.38;;
31112;SDS011;17763;48.730;9.136;2022-10-31T06:38:40;6.55;;;4.50;;
31112;SDS011;17763;48.730;9.136;2022-10-31T06:41:08;6.32;;;3.92;;
31112;SDS011;17763;48.730;9.136;2022-10-31T06:43:34;7.55;;;4.55;;
31112;SDS011;17763;48.730;9.136;2022-10-31T06:46:03;10.18;;;4.70;;
31112;SDS011;17763;48.730;9.136;2022-10-31T06:48:32;6.03;;;4.78;;
31112;SDS011;17763;48.730;9.136;2022-10-31T06:50:58;8.93;;;5.10;;
31112;SDS011;17763;48.730;9.136;2022-10-31T06:53:25;8.95;;;4.65;;
31112;SDS011;17763;48.730;9.136;2022-10-31T06:55:51;11.32;;;4.95;;
31112;SDS011;17763;48.730;9.136;2022-10-31T06:58:19;9.90;;;4.38;;
31112;SDS011;17763;48.730;9.136;2022-10-31T07:00:47;8.60;;;5.30;;
31112;SDS011;17763;48.730;9.136;2022-10-31T07:03:13;6.25;;;4.93;;
31112;SDS011;17763;48.730;9.136;2022-10-31T07:05:40;9.68;;;4.82;;
31112;SDS011;17763;48.730;9.136;2022-10-31T07:08:07;6.60;;;5.40;;
31112;SDS011;17763;48.730;9.136;2022-10-31T07:10:35;6.88;;;5.10;;
31112;SDS011;17763;48.730;9.136;2022-10-31T07:13:02;6.10;;;4.32;;
31112;SDS011;17763;48.730;9.136;2022-10-31T07:15:32;6.80;;;4.97;;
31112;SDS011;17763;48.730;9.136;2022-10-31T07:17:59;8.40;;;5.15;;
31112;SDS011;17763;48.730;9.136;2022-10-31T07:20:31;8.07;;;4.93;;
31112;SDS011;17763;48.730;9.136;2022-10-31T07:22:57;9.80;;;5.65;;
31112;SDS011;17763;48.730;9.136;2022-10-31T07:25:23;8.25;;;5.53;;
31112;SDS011;17763;48.730;9.136;2022-10-31T07:27:49;11.27;;;5.25;;
31112;SDS011;17763;48.730;9.136;2022-10-31T07:30:16;8.45;;;5.32;;
31112;SDS011;17763;48.730;9.136;2022-10-31T07:32:43;6.00;;;4.60;;
31112;SDS011;17763;48.730;9.136;2022-10-31T07:35:11;8.98;;;4.90;;
31112;SDS011;17763;48.730;9.136;2022-10-31T07:37:38;9.05;;;5.05;;
31112;SDS011;17763;48.730;9.136;2022-10-31T07:40:05;6.97;;;4.95;;
31112;SDS011;17763;48.730;9.136;2022-10-31T07:42:35;6.03;;;4.93;;
31112;SDS011;17763;48.730;9.136;2022-10-31T07:45:02;8.60;;;5.20;;
31112;SDS011;17763;48.730;9.136;2022-10-31T07:47:29;8.88;;;5.15;;
31112;SDS011;17763;48.730;9.136;2022-10-31T07:49:57;6.07;;;4.68;;
31112;SDS011;17763;48.730;9.136;2022-10-31T07:52:23;10.88;;;6.60;;
31112;SDS011;17763;48.730;9.136;2022-10-31T07:54:50;11.52;;;6.13;;
31112;SDS011;17763;48.730;9.136;2022-10-31T07:57:15;7.10;;;5.68;;
31112;SDS011;17763;48.730;9.136;2022-10-31T07:59:41;10.85;;;5.38;;
31112;SDS011;17763;48.730;9.136;2022-10-31T08:02:07;10.38;;;5.93;;
31112;SDS011;17763;48.730;9.136;2022-10-31T08:04:35;8.07;;;5.15;;
31112;SDS011;17763;48.730;9.136;2022-10-31T08:07:01;12.23;;;6.32;;
31112;SDS011;17763;48.730;9.136;2022-10-31T08:09:29;14.02;;;6.80;;
31112;SDS011;17763;48.730;9.136;2022-10-31T08:11:55;11.25;;;5.00;;
31112;SDS011;17763;48.730;9.136;2022-10-31T08:14:20;9.07;;;5.82;;
31112;SDS011;17763;48.730;9.136;2022-10-31T08:16:47;10.68;;;5.82;;
31112;SDS011;17763;48.730;9.136;2022-10-31T08:19:13;9.02;;;6.07;;
31112;SDS011;17763;48.730;9.136;2022-10-31T08:21:38;8.50;;;6.00;;
31112;SDS011;17763;48.730;9.136;2022-10-31T08:24:04;10.73;;;6.13;;
31112;SDS011;17763;48.730;9.136;2022-10-31T08:26:30;7.82;;;5.63;;
31112;SDS011;17763;48.730;9.136;2022-10-31T08:28:56;11.32;;;5.70;;
31112;SDS011;17763;48.730;9.136;2022-10-31T08:31:22;7.10;;;5.65;;
31112;SDS011;17763;48.730;9.136;2022-10-31T08:33:48;13.38;;;5.90;;
31112;SDS011;17763;48.730;9.136;2022-10-31T08:36:14;11.88;;;5.82;;
31112;SDS011;17763;48.730;9.136;2022-10-31T08:38:40;9.05;;;6.00;;
31112;SDS011;17763;48.730;9.136;2022-10-31T08:41:07;15.98;;;7.03;;
31112;SDS011;17763;48.730;9.136;2022-10-31T08:43:33;8.80;;;5.85;;
31112;SDS011;17763;48.730;9.136;2022-10-31T08:45:59;10.18;;;7.20;;
31112;SDS011;17763;48.730;9.136;2022-10-31T08:48:25;7.00;;;5.57;;
31112;SDS011;17763;48.730;9.136;2022-10-31T08:50:55;15.77;;;6.55;;
31112;SDS011;17763;48.730;9.136;2022-10-31T08:53:23;12.48;;;5.85;;
31112;SDS011;17763;48.730;9.136;2022-10-31T08:55:48;10.07;;;6.15;;
31112;SDS011;17763;48.730;9.136;2022-10-31T08:58:17;8.18;;;5.10;;
31112;SDS011;17763;48.730;9.136;2022-10-31T09:00:44;8.15;;;5.60;;
31112;SDS011;17763;48.730;9.136;2022-10-31T09:03:14;14.18;;;6.40;;
31112;SDS011;17763;48.730;9.136;2022-10-31T09:05:45;6.05;;;5.38;;
31112;SDS011;17763;48.730;9.136;2022-10-31T09:08:10;9.48;;;5.68;;
31112;SDS011;17763;48.730;9.136;2022-10-31T09:10:40;10.00;;;5.68;;
31112;SDS011;17763;48.730;9.136;2022-10-31T09:13:07;9.02;;;5.82;;
31112;SDS011;17763;48.730;9.136;2022-10-31T09:15:38;9.25;;;5.13;;
31112;SDS011;17763;48.730;9.136;2022-10-31T09:18:08;8.13;;;5.30;;
31112;SDS011;17763;48.730;9.136;2022-10-31T09:20:38;8.23;;;5.55;;
31112;SDS011;17763;48.730;9.136;2022-10-31T09:23:06;7.63;;;5.45;;
31112;SDS011;17763;48.730;9.136;2022-10-31T09:25:34;9.70;;;5.10;;
31112;SDS011;17763;48.730;9.136;2022-10-31T09:28:03;8.07;;;5.63;;
31112;SDS011;17763;48.730;9.136;2022-10-31T09:30:30;5.68;;;4.85;;
31112;SDS011;17763;48.730;9.136;2022-10-31T09:33:00;10.57;;;6.15;;
31112;SDS011;17763;48.730;9.136;2022-10-31T09:35:27;7.63;;;6.32;;
31112;SDS011;17763;48.730;9.136;2022-10-31T09:37:57;8.27;;;5.68;;
31112;SDS011;17763;48.730;9.136;2022-10-31T09:40:25;14.60;;;6.57;;
31112;SDS011;17763;48.730;9.136;2022-10-31T09:54:19;16.33;;;7.07;;
31112;SDS011;17763;48.730;9.136;2022-10-31T09:56:49;9.98;;;5.85;;
31112;SDS011;17763;48.730;9.136;2022-10-31T09:59:18;8.38;;;5.15;;
31112;SDS011;17763;48.730;9.136;2022-10-31T10:07:30;8.07;;;5.70;;
31112;SDS011;17763;48.730;9.136;2022-10-31T10:12:53;12.20;;;5.50;;
31112;SDS011;17763;48.730;9.136;2022-10-31T10:21:35;9.63;;;5.93;;
31112;SDS011;17763;48.730;9.136;2022-10-31T10:27:14;10.30;;;6.65;;
31112;SDS011;17763;48.730;9.136;2022-10-31T10:30:20;17.35;;;7.57;;
31112;SDS011;17763;48.730;9.136;2022-10-31T10:32:51;10.00;;;6.60;;
31112;SDS011;17763;48.730;9.136;2022-10-31T10:35:38;11.55;;;7.70;;
31112;SDS011;17763;48.730;9.136;2022-10-31T10:41:01;13.23;;;7.85;;
31112;SDS011;17763;48.730;9.136;2022-10-31T10:43:35;14.57;;;8.30;;
31112;SDS011;17763;48.730;9.136;2022-10-31T10:49:18;10.38;;;6.38;;
31112;SDS011;17763;48.730;9.136;2022-10-31T10:52:58;9.88;;;6.35;;
31112;SDS011;17763;48.730;9.136;2022-10-31T10:58:07;11.90;;;6.50;;
31112;SDS011;17763;48.730;9.136;2022-10-31T11:00:32;9.90;;;6.30;;
31112;SDS011;17763;48.730;9.136;2022-10-31T11:03:03;13.73;;;6.82;;
31112;SDS011;17763;48.730;9.136;2022-10-31T11:05:34;8.73;;;5.53;;
31112;SDS011;17763;48.730;9.136;2022-10-31T11:08:27;14.60;;;6.68;;
31112;SDS011;17763;48.730;9.136;2022-10-31T11:13:37;12.85;;;7.40;;
31112;SDS011;17763;48.730;9.136;2022-10-31T11:16:08;12.73;;;6.53;;
31112;SDS011;17763;48.730;9.136;2022-10-31T11:18:40;10.90;;;5.88;;
31112;SDS011;17763;48.730;9.136;2022-10-31T11:21:26;10.60;;;6.50;;
31112;SDS011;17763;48.730;9.136;2022-10-31T11:26:34;15.93;;;7.70;;
31112;SDS011;17763;48.730;9.136;2022-10-31T11:29:03;13.10;;;7.22;;
31112;SDS011;17763;48.730;9.136;2022-10-31T11:31:30;15.48;;;7.40;;
31112;SDS011;17763;48.730;9.136;2022-10-31T11:33:59;9.98;;;6.72;;
31112;SDS011;17763;48.730;9.136;2022-10-31T11:36:29;15.80;;;7.38;;
31112;SDS011;17763;48.730;9.136;2022-10-31T11:38:57;14.60;;;6.03;;
31112;SDS011;17763;48.730;9.136;2022-10-31T11:41:33;11.23;;;7.13;;
31112;SDS011;17763;48.730;9.136;2022-10-31T11:44:25;19.23;;;7.40;;
31112;SDS011;17763;48.730;9.136;2022-10-31T11:46:52;18.50;;;9.55;;
31112;SDS011;17763;48.730;9.136;2022-10-31T11:51:58;19.90;;;8.63;;
31112;SDS011;17763;48.730;9.136;2022-10-31T11:57:44;17.92;;;11.68;;
31112;SDS011;17763;48.730;9.136;2022-10-31T12:02:50;14.10;;;6.85;;
31112;SDS011;17763;48.730;9.136;2022-10-31T12:05:17;16.20;;;6.95;;
31112;SDS011;17763;48.730;9.136;2022-10-31T12:07:45;19.65;;;11.95;;
31112;SDS011;17763;48.730;9.136;2022-10-31T12:10:11;12.80;;;7.20;;
31112;SDS011;17763;48.730;9.136;2022-10-31T12:15:38;8.20;;;5.70;;
31112;SDS011;17763;48.730;9.136;2022-10-31T12:23:56;12.05;;;5.28;;
31112;SDS011;17763;48.730;9.136;2022-10-31T12:59:40;5.07;;;4.18;;
31112;SDS011;17763;48.730;9.136;2022-10-31T13:07:34;9.80;;;5.03;;
31112;SDS011;17763;48.730;9.136;2022-10-31T13:10:25;12.63;;;5.57;;
31112;SDS011;17763;48.730;9.136;2022-10-31T13:12:55;10.70;;;5.65;;
31112;SDS011;17763;48.730;9.136;2022-10-31T13:15:27;11.00;;;5.32;;
31112;SDS011;17763;48.730;9.136;2022-10-31T13:18:01;8.45;;;4.63;;
31112;SDS011;17763;48.730;9.136;2022-10-31T13:20:32;9.02;;;4.25;;
31112;SDS011;17763;48.730;9.136;2022-10-31T13:23:08;11.57;;;4.97;;
31112;SDS011;17763;48.730;9.136;2022-10-31T13:25:44;8.40;;;4.57;;
31112;SDS011;17763;48.730;9.136;2022-10-31T13:31:10;8.13;;;4.93;;
31112;SDS011;17763;48.730;9.136;2022-10-31T13:33:38;13.15;;;6.05;;
31112;SDS011;17763;48.730;9.136;2022-10-31T13:38:38;15.98;;;5.18;;
31112;SDS011;17763;48.730;9.136;2022-10-31T13:46:51;10.52;;;5.30;;
31112;SDS011;17763;48.730;9.136;2022-10-31T14:00:14;10.80;;;5.15;;
31112;SDS011;17763;48.730;9.136;2022-10-31T14:02:51;9.50;;;5.90;;
31112;SDS011;17763;48.730;9.136;2022-10-31T14:05:30;8.45;;;5.82;;
31112;SDS011;17763;48.730;9.136;2022-10-31T14:07:58;10.60;;;5.72;;
31112;SDS011;17763;48.730;9.136;2022-10-31T14:10:35;7.22;;;5.47;;
31112;SDS011;17763;48.730;9.136;2022-10-31T14:13:07;13.93;;;6.40;;
31112;SDS011;17763;48.730;9.136;2022-10-31T14:15:42;10.73;;;5.95;;
31112;SDS011;17763;48.730;9.136;2022-10-31T14:18:39;8.80;;;6.05;;
31112;SDS011;17763;48.730;9.136;2022-10-31T14:26:53;8.60;;;5.28;;
31112;SDS011;17763;48.730;9.136;2022-10-31T14:29:24;19.65;;;6.47;;
31112;SDS011;17763;48.730;9.136;2022-10-31T14:31:53;12.27;;;6.50;;
31112;SDS011;17763;48.730;9.136;2022-10-31T14:52:36;11.20;;;6.70;;
31112;SDS011;17763;48.730;9.136;2022-10-31T14:55:10;9.02;;;5.97;;
31112;SDS011;17763;48.730;9.136;2022-10-31T14:57:38;7.20;;;5.03;;
31112;SDS011;17763;48.730;9.136;2022-10-31T15:00:19;8.45;;;5.10;;
31112;SDS011;17763;48.730;9.136;2022-10-31T15:05:12;6.10;;;5.03;;
31112;SDS011;17763;48.730;9.136;2022-10-31T15:07:57;9.52;;;5.32;;
31112;SDS011;17763;48.730;9.136;2022-10-31T15:10:33;10.18;;;5.88;;
31112;SDS011;17763;48.730;9.136;2022-10-31T15:13:18;10.18;;;5.45;;
31112;SDS011;17763;48.730;9.136;2022-10-31T15:15:52;10.88;;;5.22;;
31112;SDS011;17763;48.730;9.136;2022-10-31T15:18:22;8.70;;;4.70;;
31112;SDS011;17763;48.730;9.136;2022-10-31T15:20:52;7.45;;;5.10;;
31112;SDS011;17763;48.730;9.136;2022-10-31T15:23:27;7.65;;;5.13;;
31112;SDS011;17763;48.730;9.136;2022-10-31T15:26:00;8.98;;;5.68;;
31112;SDS011;17763;48.730;9.136;2022-10-31T15:28:27;14.52;;;6.10;;
31112;SDS011;17763;48.730;9.136;2022-10-31T15:30:57;13.20;;;5.38;;
31112;SDS011;17763;48.730;9.136;2022-10-31T15:33:45;9.63;;;5.40;;
31112;SDS011;17763;48.730;9.136;2022-10-31T15:36:20;8.70;;;5.32;;
31112;SDS011;17763;48.730;9.136;2022-10-31T15:38:48;7.93;;;5.95;;
31112;SDS011;17763;48.730;9.136;2022-10-31T15:41:28;7.05;;;5.38;;
31112;SDS011;17763;48.730;9.136;2022-10-31T15:44:01;10.98;;;5.60;;
31112;SDS011;17763;48.730;9.136;2022-10-31T15:46:35;13.30;;;5.45;;
31112;SDS011;17763;48.730;9.136;2022-10-31T15:49:01;16.90;;;6.28;;
31112;SDS011;17763;48.730;9.136;2022-10-31T15:51:28;10.82;;;5.95;;
31112;SDS011;17763;48.730;9.136;2022-10-31T15:54:00;9.75;;;5.57;;
31112;SDS011;17763;48.730;9.136;2022-10-31T15:56:30;7.70;;;5.32;;
31112;SDS011;17763;48.730;9.136;2022-10-31T15:59:00;9.18;;;5.82;;
31112;SDS011;17763;48.730;9.136;2022-10-31T16:01:27;11.48;;;5.95;;
31112;SDS011;17763;48.730;9.136;2022-10-31T16:06:35;11.93;;;6.38;;
31112;SDS011;17763;48.730;9.136;2022-10-31T16:09:22;9.93;;;4.53;;
31112;SDS011;17763;48.730;9.136;2022-10-31T16:11:48;10.40;;;5.35;;
31112;SDS011;17763;48.730;9.136;2022-10-31T16:14:15;13.32;;;6.22;;
31112;SDS011;17763;48.730;9.136;2022-10-31T16:16:51;15.05;;;6.10;;
31112;SDS011;17763;48.730;9.136;2022-10-31T16:24:26;9.40;;;6.05;;
31112;SDS011;17763;48.730;9.136;2022-10-31T16:26:59;10.95;;;6.68;;
31112;SDS011;17763;48.730;9.136;2022-10-31T16:29:35;11.65;;;6.10;;
31112;SDS011;17763;48.730;9.136;2022-10-31T16:40:03;15.07;;;8.45;;
31112;SDS011;17763;48.730;9.136;2022-10-31T16:42:33;19.27;;;11.23;;
31112;SDS011;17763;48.730;9.136;2022-10-31T16:45:01;18.75;;;11.75;;
31112;SDS011;17763;48.730;9.136;2022-10-31T16:47:27;14.77;;;10.55;;
31112;SDS011;17763;48.730;9.136;2022-10-31T16:49:52;15.90;;;9.80;;
31112;SDS011;17763;48.730;9.136;2022-10-31T16:52:18;20.95;;;14.88;;
31112;SDS011;17763;48.730;9.136;2022-10-31T16:54:44;19.20;;;12.73;;
31112;SDS011;17763;48.730;9.136;2022-10-31T16:57:17;17.58;;;10.35;;
31112;SDS011;17763;48.730;9.136;2022-10-31T16:59:46;21.35;;;9.10;;
31112;SDS011;17763;48.730;9.136;2022-10-31T17:02:16;11.45;;;7.45;;
31112;SDS011;17763;48.730;9.136;2022-10-31T17:04:42;15.95;;;8.27;;
31112;SDS011;17763;48.730;9.136;2022-10-31T17:07:11;14.55;;;8.30;;
31112;SDS011;17763;48.730;9.136;2022-10-31T17:09:36;13.60;;;9.07;;
31112;SDS011;17763;48.730;9.136;2022-10-31T17:12:05;15.95;;;9.10;;
31112;SDS011;17763;48.730;9.136;2022-10-31T17:14:32;17.70;;;9.27;;
31112;SDS011;17763;48.730;9.136;2022-10-31T17:17:01;21.17;;;9.57;;
31112;SDS011;17763;48.730;9.136;2022-10-31T17:19:26;17.95;;;8.88;;
31112;SDS011;17763;48.730;9.136;2022-10-31T17:21:54;15.70;;;8.68;;
31112;SDS011;17763;48.730;9.136;2022-10-31T17:24:20;16.10;;;8.88;;
31112;SDS011;17763;48.730;9.136;2022-10-31T17:26:46;14.60;;;9.20;;
31112;SDS011;17763;48.730;9.136;2022-10-31T17:29:11;17.65;;;9.35;;
31112;SDS011;17763;48.730;9.136;2022-10-31T17:31:37;17.30;;;9.57;;
31112;SDS011;17763;48.730;9.136;2022-10-31T17:34:03;14.73;;;9.55;;
31112;SDS011;17763;48.730;9.136;2022-10-31T17:36:33;14.30;;;9.00;;
31112;SDS011;17763;48.730;9.136;2022-10-31T17:39:02;13.48;;;8.63;;
31112;SDS011;17763;48.730;9.136;2022-10-31T17:41:33;15.40;;;7.88;;
31112;SDS011;17763;48.730;9.136;2022-10-31T17:43:59;19.05;;;8.38;;
31112;SDS011;17763;48.730;9.136;2022-10-31T17:46:25;19.50;;;9.82;;
31112;SDS011;17763;48.730;9.136;2022-10-31T17:48:53;19.45;;;8.10;;
31112;SDS011;17763;48.730;9.136;2022-10-31T17:51:19;15.18;;;8.30;;
31112;SDS011;17763;48.730;9.136;2022-10-31T17:53:47;23.27;;;8.50;;
31112;SDS011;17763;48.730;9.136;2022-10-31T17:56:12;16.42;;;8.40;;
31112;SDS011;17763;48.730;9.136;2022-10-31T17:58:38;16.40;;;9.23;;
31112;SDS011;17763;48.730;9.136;2022-10-31T18:01:08;16.27;;;10.43;;
31112;SDS011;17763;48.730;9.136;2022-10-31T18:03:35;14.88;;;10.05;;
31112;SDS011;17763;48.730;9.136;2022-10-31T18:06:03;15.18;;;10.70;;
31112;SDS011;17763;48.730;9.136;2022-10-31T18:08:30;24.85;;;10.60;;